createdAt,value
2018-03-22T00:02:24.771Z,2.38
2018-03-22T00:04:53.132Z,2.24
2018-03-22T00:07:21.528Z,2.23
2018-03-22T00:09:49.895Z,2.24
2018-03-22T00:12:17.471Z,2.19
2018-03-22T00:14:45.160Z,2.21
2018-03-22T00:17:13.703Z,2.24
2018-03-22T00:19:41.284Z,2.27
2018-03-22T00:22:20.688Z,2.09
2018-03-22T00:24:48.303Z,2.22
2018-03-22T00:27:16.816Z,2.28
2018-03-22T00:29:44.436Z,2.36
2018-03-22T00:32:12.923Z,2.29
2018-03-22T00:34:40.504Z,2.29
2018-03-22T00:37:08.888Z,2.25
2018-03-22T00:39:36.462Z,2.25
2018-03-22T00:42:04.944Z,2.34
2018-03-22T00:44:32.524Z,2.35
2018-03-22T00:47:00.108Z,2.39
2018-03-22T00:49:28.526Z,2.33
2018-03-22T00:51:56.973Z,2.38
2018-03-22T00:54:24.659Z,2.31
2018-03-22T00:56:52.315Z,2.26
2018-03-22T00:59:19.891Z,2.31
2018-03-22T01:01:47.505Z,2.20
2018-03-22T01:04:15.096Z,2.29
2018-03-22T01:06:43.591Z,2.15
2018-03-22T01:09:11.859Z,2.23
2018-03-22T01:11:40.269Z,2.08
2018-03-22T01:14:08.542Z,2.13
2018-03-22T01:16:36.116Z,2.02
2018-03-22T01:19:03.695Z,2.08
2018-03-22T01:21:31.276Z,2.00
2018-03-22T01:23:58.851Z,1.92
2018-03-22T01:26:26.427Z,1.95
2018-03-22T01:28:54.044Z,1.93
2018-03-22T01:31:21.621Z,1.91
2018-03-22T01:33:50.105Z,2.10
2018-03-22T01:36:17.684Z,2.08
2018-03-22T01:38:45.256Z,2.03
2018-03-22T01:41:12.839Z,1.96
2018-03-22T01:43:40.411Z,1.92
2018-03-22T01:46:08.771Z,2.13
2018-03-22T01:48:37.133Z,2.06
2018-03-22T01:51:05.479Z,2.06
2018-03-22T01:53:33.093Z,2.06
2018-03-22T01:56:00.668Z,1.83
2018-03-22T01:58:28.247Z,1.75
2018-03-22T02:00:55.860Z,1.66
2018-03-22T02:03:23.441Z,1.62
2018-03-22T02:05:51.028Z,1.54
2018-03-22T02:08:18.607Z,1.50
2018-03-22T02:10:46.199Z,1.61
2018-03-22T02:13:13.788Z,1.57
2018-03-22T02:15:41.378Z,1.47
2018-03-22T02:18:09.008Z,1.39
2018-03-22T02:20:36.606Z,1.37
2018-03-22T02:23:04.216Z,1.41
2018-03-22T02:25:32.713Z,1.35
2018-03-22T02:28:00.299Z,1.39
2018-03-22T02:30:28.383Z,1.50
2018-03-22T02:32:56.011Z,1.47
2018-03-22T02:35:23.608Z,1.44
2018-03-22T02:37:51.216Z,1.46
2018-03-22T02:40:19.699Z,1.63
2018-03-22T02:42:47.316Z,1.52
2018-03-22T02:45:15.703Z,1.54
2018-03-22T02:47:43.298Z,1.40
2018-03-22T02:50:10.886Z,1.44
2018-03-22T02:52:38.476Z,1.37
2018-03-22T02:55:06.833Z,1.35
2018-03-22T02:57:34.431Z,1.29
2018-03-22T03:00:02.020Z,1.35
2018-03-22T03:02:29.613Z,1.43
2018-03-22T03:04:57.199Z,1.38
2018-03-22T03:07:25.624Z,1.42
2018-03-22T03:09:53.219Z,1.55
2018-03-22T03:12:20.836Z,1.60
2018-03-22T03:14:49.310Z,1.46
2018-03-22T03:17:17.721Z,1.49
2018-03-22T03:19:46.075Z,1.48
2018-03-22T03:22:14.448Z,1.44
2018-03-22T03:24:42.831Z,1.39
2018-03-22T03:27:10.415Z,1.45
2018-03-22T03:29:38.700Z,1.54
2018-03-22T03:32:07.091Z,1.47
2018-03-22T03:34:34.671Z,1.44
2018-03-22T03:37:02.252Z,1.34
2018-03-22T03:39:29.859Z,1.30
2018-03-22T03:41:58.208Z,1.29
2018-03-22T03:44:25.821Z,1.30
2018-03-22T03:46:54.375Z,1.27
2018-03-22T03:49:21.954Z,1.23
2018-03-22T03:51:50.463Z,1.21
2018-03-22T03:54:18.052Z,1.26
2018-03-22T03:56:45.680Z,1.17
2018-03-22T03:59:13.255Z,1.35
2018-03-22T04:01:40.870Z,1.23
2018-03-22T04:04:08.458Z,1.13
2018-03-22T04:06:36.979Z,1.15
2018-03-22T04:09:05.351Z,1.19
2018-03-22T04:11:32.948Z,1.27
2018-03-22T04:14:01.232Z,1.20
2018-03-22T04:16:29.567Z,1.24
2018-03-22T04:18:57.149Z,1.21
2018-03-22T04:21:24.790Z,1.30
2018-03-22T04:23:53.312Z,1.25
2018-03-22T04:26:20.886Z,1.24
2018-03-22T04:28:48.506Z,1.19
2018-03-22T04:31:16.976Z,1.14
2018-03-22T04:33:45.387Z,1.16
2018-03-22T04:36:13.735Z,1.16
2018-03-22T04:38:42.007Z,1.19
2018-03-22T04:41:10.399Z,1.17
2018-03-22T04:43:38.692Z,1.18
2018-03-22T04:46:06.283Z,1.20
2018-03-22T04:48:34.771Z,1.22
2018-03-22T04:51:02.360Z,1.26
2018-03-22T04:53:29.938Z,1.30
2018-03-22T04:55:57.528Z,1.38
2018-03-22T04:58:25.115Z,1.29
2018-03-22T05:00:52.727Z,1.41
2018-03-22T05:03:21.007Z,1.40
2018-03-22T05:05:48.600Z,1.44
2018-03-22T05:08:16.172Z,1.42
2018-03-22T05:10:43.759Z,1.50
2018-03-22T05:13:11.344Z,1.40
2018-03-22T05:15:38.928Z,1.41
2018-03-22T05:18:06.510Z,1.49
2018-03-22T05:20:34.420Z,1.51
2018-03-22T05:23:02.729Z,1.56
2018-03-22T05:25:31.219Z,1.55
2018-03-22T05:27:58.795Z,1.59
2018-03-22T05:30:27.149Z,1.70
2018-03-22T05:32:54.736Z,1.72
2018-03-22T05:35:23.263Z,1.69
2018-03-22T05:37:51.453Z,1.76
2018-03-22T05:40:19.063Z,1.76
2018-03-22T05:42:46.638Z,1.71
2018-03-22T05:45:14.219Z,1.70
2018-03-22T05:47:41.811Z,1.71
2018-03-22T05:50:09.483Z,1.73
2018-03-22T05:52:37.967Z,1.76
2018-03-22T05:55:06.336Z,1.91
2018-03-22T05:57:33.972Z,1.87
2018-03-22T06:00:01.556Z,1.97
2018-03-22T06:02:29.153Z,1.92
2018-03-22T06:04:56.736Z,1.98
2018-03-22T06:07:24.319Z,2.00
2018-03-22T06:09:51.900Z,2.22
2018-03-22T06:12:19.494Z,2.25
2018-03-22T06:14:47.310Z,2.32
2018-03-22T06:17:14.899Z,2.31
2018-03-22T06:19:42.486Z,2.30
2018-03-22T06:24:36.964Z,2.39
2018-03-22T06:27:04.546Z,2.48
2018-03-22T06:29:32.159Z,2.41
2018-03-22T06:31:59.854Z,2.36
2018-03-22T06:34:28.275Z,2.45
2018-03-22T06:36:55.859Z,2.48
2018-03-22T06:39:23.436Z,2.44
2018-03-22T06:41:51.052Z,2.51
2018-03-22T06:44:18.671Z,2.58
2018-03-22T06:46:47.163Z,2.75
2018-03-22T06:49:15.526Z,2.72
2018-03-22T06:51:43.104Z,2.75
2018-03-22T06:54:10.692Z,2.89
2018-03-22T06:56:38.273Z,3.00
2018-03-22T06:59:05.856Z,3.18
2018-03-22T07:01:33.435Z,3.15
2018-03-22T07:04:01.027Z,3.33
2018-03-22T07:06:29.312Z,3.49
2018-03-22T07:08:56.896Z,3.58
2018-03-22T07:11:24.506Z,3.56
2018-03-22T07:13:53.013Z,3.54
2018-03-22T07:16:20.594Z,3.57
2018-03-22T07:18:49.115Z,3.47
2018-03-22T07:21:16.704Z,3.35
2018-03-22T07:23:44.288Z,3.31
2018-03-22T07:26:11.936Z,3.27
2018-03-22T07:28:39.553Z,3.29
2018-03-22T07:31:08.051Z,3.28
2018-03-22T07:33:36.646Z,3.32
2018-03-22T07:36:04.226Z,3.40
2018-03-22T07:38:31.806Z,3.52
2018-03-22T07:40:59.427Z,3.70
2018-03-22T07:43:32.723Z,3.69
2018-03-22T07:46:01.127Z,3.45
2018-03-22T07:48:28.804Z,3.42
2018-03-22T07:50:56.383Z,3.25
2018-03-22T07:53:23.961Z,3.26
2018-03-22T07:55:51.539Z,3.06
2018-03-22T07:58:19.119Z,2.85
2018-03-22T08:00:47.598Z,2.69
2018-03-22T08:03:16.110Z,2.53
2018-03-22T08:05:44.550Z,2.28
2018-03-22T08:08:12.144Z,2.11
2018-03-22T08:10:39.723Z,2.14
2018-03-22T08:13:07.316Z,2.15
2018-03-22T08:15:34.894Z,2.13
2018-03-22T08:18:02.490Z,2.01
2018-03-22T08:20:30.100Z,1.93
2018-03-22T08:22:57.687Z,1.88
2018-03-22T08:25:25.284Z,1.89
2018-03-22T08:27:52.864Z,1.97
2018-03-22T08:30:20.435Z,2.00
2018-03-22T08:32:48.018Z,1.98
2018-03-22T08:35:15.615Z,2.06
2018-03-22T08:37:43.215Z,2.18
2018-03-22T08:40:10.795Z,2.26
2018-03-22T08:42:38.379Z,2.34
2018-03-22T08:45:05.957Z,2.24
2018-03-22T08:47:33.552Z,2.20
2018-03-22T08:50:01.216Z,2.17
2018-03-22T08:52:28.790Z,2.14
2018-03-22T08:54:56.366Z,2.14
2018-03-22T08:57:23.994Z,2.14
2018-03-22T08:59:52.495Z,2.15
2018-03-22T09:02:20.071Z,2.16
2018-03-22T09:04:47.644Z,2.25
2018-03-22T09:07:15.236Z,2.33
2018-03-22T09:09:42.963Z,2.32
2018-03-22T09:12:10.523Z,2.38
2018-03-22T09:14:38.103Z,2.56
2018-03-22T09:17:05.679Z,2.54
2018-03-22T09:19:33.272Z,2.74
2018-03-22T09:22:00.850Z,2.69
2018-03-22T09:24:28.432Z,2.68
2018-03-22T09:27:01.699Z,2.73
2018-03-22T09:29:29.279Z,2.58
2018-03-22T09:31:56.858Z,2.45
2018-03-22T09:34:24.447Z,2.62
2018-03-22T09:36:52.035Z,2.54
2018-03-22T09:39:19.616Z,2.53
2018-03-22T09:41:48.030Z,2.63
2018-03-22T09:44:34.784Z,2.79
2018-03-22T09:47:03.215Z,2.93
2018-03-22T09:49:31.568Z,3.06
2018-03-22T09:51:59.883Z,3.08
2018-03-22T09:54:27.463Z,3.24
2018-03-22T09:56:56.007Z,3.24
2018-03-22T09:59:24.892Z,3.12
2018-03-22T10:01:53.414Z,3.04
2018-03-22T10:04:21.766Z,3.03
2018-03-22T10:06:49.386Z,2.86
2018-03-22T10:09:16.967Z,2.85
2018-03-22T10:11:45.542Z,2.75
2018-03-22T10:14:13.939Z,2.74
2018-03-22T10:16:41.515Z,2.71
2018-03-22T10:19:09.875Z,2.81
2018-03-22T10:21:37.478Z,2.75
2018-03-22T10:24:05.178Z,2.78
2018-03-22T10:26:32.836Z,2.70
2018-03-22T10:29:01.288Z,2.66
2018-03-22T10:31:28.895Z,2.64
2018-03-22T10:33:57.424Z,2.65
2018-03-22T10:36:25.042Z,2.59
2018-03-22T10:38:53.502Z,2.48
2018-03-22T10:41:21.079Z,2.48
2018-03-22T10:43:49.566Z,2.33
2018-03-22T10:46:17.151Z,2.42
2018-03-22T10:48:45.504Z,2.30
2018-03-22T10:51:13.088Z,2.33
2018-03-22T10:53:40.668Z,2.31
2018-03-22T10:56:08.253Z,2.39
2018-03-22T10:58:35.843Z,2.53
2018-03-22T11:01:09.943Z,2.58
2018-03-22T11:03:43.133Z,2.46
2018-03-22T11:06:10.718Z,2.55
2018-03-22T11:08:38.302Z,2.60
2018-03-22T11:11:05.883Z,2.72
2018-03-22T11:13:33.485Z,2.56
2018-03-22T11:16:01.066Z,2.70
2018-03-22T11:18:28.642Z,2.73
2018-03-22T11:20:56.222Z,2.81
2018-03-22T11:23:23.806Z,2.78
2018-03-22T11:25:51.379Z,2.83
2018-03-22T11:28:18.964Z,2.95
2018-03-22T11:30:47.346Z,2.99
2018-03-22T11:33:14.929Z,3.12
2018-03-22T11:35:42.511Z,3.08
2018-03-22T11:38:10.091Z,3.30
2018-03-22T11:40:37.671Z,3.46
2018-03-22T11:43:05.255Z,3.54
2018-03-22T11:45:32.860Z,3.56
2018-03-22T11:48:01.024Z,3.47
2018-03-22T11:50:28.607Z,3.42
2018-03-22T11:52:56.183Z,3.56
2018-03-22T11:55:23.774Z,3.63
2018-03-22T11:57:51.383Z,3.61
2018-03-22T12:00:19.744Z,3.59
2018-03-22T12:02:47.323Z,3.57
2018-03-22T12:05:14.900Z,3.67
2018-03-22T12:07:43.338Z,3.73
2018-03-22T12:10:10.931Z,3.95
2018-03-22T12:12:38.519Z,3.89
2018-03-22T12:15:06.110Z,3.74
2018-03-22T12:17:33.691Z,3.73
2018-03-22T12:20:01.266Z,3.82
2018-03-22T12:22:28.851Z,3.76
2018-03-22T12:24:56.426Z,3.76
2018-03-22T12:27:24.013Z,3.77
2018-03-22T12:29:51.595Z,3.78
2018-03-22T12:32:19.182Z,3.75
2018-03-22T12:34:46.788Z,3.67
2018-03-22T12:37:14.367Z,3.62
2018-03-22T12:39:41.984Z,3.58
2018-03-22T12:42:09.570Z,3.65
2018-03-22T12:44:37.207Z,3.44
2018-03-22T12:47:04.788Z,3.47
2018-03-22T12:49:32.371Z,3.34
2018-03-22T12:51:59.956Z,3.42
2018-03-22T12:54:27.542Z,3.55
2018-03-22T12:56:55.124Z,3.46
2018-03-22T12:59:22.749Z,3.59
2018-03-22T13:01:50.335Z,3.59
2018-03-22T13:04:17.919Z,3.55
2018-03-22T13:06:45.507Z,3.61
2018-03-22T13:09:13.253Z,3.73
2018-03-22T13:11:40.865Z,3.65
2018-03-22T13:14:08.441Z,3.54
2018-03-22T13:16:36.026Z,3.65
2018-03-22T13:19:03.607Z,3.62
2018-03-22T13:21:32.056Z,3.68
2018-03-22T13:23:59.644Z,3.71
2018-03-22T13:26:27.243Z,3.76
2018-03-22T13:28:55.763Z,3.81
2018-03-22T13:31:24.140Z,3.86
2018-03-22T13:33:52.528Z,3.83
2018-03-22T13:36:20.817Z,3.95
2018-03-22T13:38:48.802Z,3.85
2018-03-22T13:41:17.170Z,3.87
2018-03-22T13:43:45.575Z,3.87
2018-03-22T13:46:13.980Z,3.90
2018-03-22T13:48:42.379Z,3.88
2018-03-22T13:51:09.958Z,3.80
2018-03-22T13:53:37.581Z,3.82
2018-03-22T13:56:05.979Z,3.86
2018-03-22T13:58:34.368Z,3.91
2018-03-22T14:01:01.957Z,3.77
2018-03-22T14:03:30.250Z,3.64
2018-03-22T14:05:57.827Z,3.69
2018-03-22T14:08:25.407Z,3.66
2018-03-22T14:10:52.991Z,3.62
2018-03-22T14:13:20.575Z,3.52
2018-03-22T14:15:49.002Z,3.65
2018-03-22T14:18:16.604Z,3.67
2018-03-22T14:20:45.101Z,3.78
2018-03-22T14:23:12.811Z,3.67
2018-03-22T14:25:40.392Z,3.81
2018-03-22T14:28:08.875Z,3.82
2018-03-22T14:30:37.242Z,3.69
2018-03-22T14:33:04.898Z,3.62
2018-03-22T14:35:32.516Z,3.67
2018-03-22T14:38:00.895Z,3.76
2018-03-22T14:40:29.520Z,3.80
2018-03-22T14:42:57.134Z,3.94
2018-03-22T14:45:24.823Z,3.99
2018-03-22T14:47:52.443Z,3.89
2018-03-22T14:50:20.025Z,3.93
2018-03-22T14:52:47.602Z,3.95
2018-03-22T14:55:15.183Z,3.87
2018-03-22T14:57:42.765Z,3.86
2018-03-22T15:00:11.163Z,3.74
2018-03-22T15:02:38.736Z,3.74
2018-03-22T15:05:06.319Z,3.68
2018-03-22T15:07:34.727Z,3.78
2018-03-22T15:10:02.351Z,3.77
2018-03-22T15:12:29.931Z,3.73
2018-03-22T15:14:57.578Z,3.73
2018-03-22T15:17:25.156Z,3.76
2018-03-22T15:19:52.737Z,3.83
2018-03-22T15:22:21.136Z,3.79
2018-03-22T15:24:48.780Z,3.75
2018-03-22T15:27:16.358Z,3.75
2018-03-22T15:29:43.939Z,3.86
2018-03-22T15:32:11.702Z,3.68
2018-03-22T15:34:39.291Z,3.68
2018-03-22T15:37:06.910Z,3.76
2018-03-22T15:39:34.482Z,3.74
2018-03-22T15:42:02.128Z,3.71
2018-03-22T15:44:29.704Z,3.67
2018-03-22T15:46:57.293Z,3.68
2018-03-22T15:49:25.794Z,3.72
2018-03-22T15:51:53.379Z,3.75
2018-03-22T15:54:20.959Z,3.65
2018-03-22T15:56:48.539Z,3.65
2018-03-22T15:59:16.176Z,3.58
2018-03-22T16:01:43.756Z,3.68
2018-03-22T16:04:11.344Z,3.60
2018-03-22T16:06:38.927Z,3.72
2018-03-22T16:09:07.412Z,3.75
2018-03-22T16:11:34.987Z,3.76
2018-03-22T16:14:04.384Z,3.63
2018-03-22T16:16:31.967Z,3.56
2018-03-22T16:18:59.556Z,3.55
2018-03-22T16:21:27.331Z,3.64
2018-03-22T16:23:54.918Z,3.58
2018-03-22T16:26:22.499Z,3.62
2018-03-22T16:28:50.174Z,3.57
2018-03-22T16:31:17.761Z,3.64
2018-03-22T16:33:45.350Z,3.46
2018-03-22T16:36:13.039Z,3.49
2018-03-22T16:38:40.628Z,3.57
2018-03-22T16:41:08.213Z,3.54
2018-03-22T16:43:36.735Z,3.50
2018-03-22T16:46:05.251Z,3.46
2018-03-22T16:48:32.838Z,3.41
2018-03-22T16:51:00.427Z,3.51
2018-03-22T16:53:28.043Z,3.44
2018-03-22T16:55:55.622Z,3.40
2018-03-22T16:58:23.314Z,3.46
2018-03-22T17:00:50.904Z,3.38
2018-03-22T17:03:18.537Z,3.37
2018-03-22T17:05:49.900Z,3.35
2018-03-22T17:08:17.483Z,3.41
2018-03-22T17:10:45.063Z,3.41
2018-03-22T17:13:12.679Z,3.31
2018-03-22T17:15:40.260Z,3.34
2018-03-22T17:18:07.839Z,3.34
2018-03-22T17:20:36.048Z,3.36
2018-03-22T17:23:03.646Z,3.47
2018-03-22T17:25:32.259Z,3.58
2018-03-22T17:27:59.890Z,3.62
2018-03-22T17:30:28.565Z,3.50
2018-03-22T17:32:56.968Z,3.47
2018-03-22T17:35:24.663Z,3.39
2018-03-22T17:37:52.348Z,3.42
2018-03-22T17:40:20.637Z,3.38
2018-03-22T17:42:48.296Z,3.41
2018-03-22T17:45:15.890Z,3.37
2018-03-22T17:47:43.623Z,3.34
2018-03-22T17:50:11.204Z,3.40
2018-03-22T17:52:38.783Z,3.43
2018-03-22T17:55:06.367Z,3.50
2018-03-22T17:57:34.089Z,3.62
2018-03-22T18:00:25.354Z,3.57
2018-03-22T18:02:53.129Z,3.60
2018-03-22T18:05:20.749Z,3.47
2018-03-22T18:07:48.374Z,3.59
2018-03-22T18:10:16.854Z,3.51
2018-03-22T18:12:44.452Z,3.69
2018-03-22T18:15:12.151Z,3.63
2018-03-22T18:17:39.776Z,3.63
2018-03-22T18:20:07.400Z,3.60
2018-03-22T18:22:35.134Z,3.58
2018-03-22T18:25:02.715Z,3.58
2018-03-22T18:27:30.330Z,3.64
2018-03-22T18:29:57.947Z,3.58
2018-03-22T18:32:25.637Z,3.57
2018-03-22T18:34:53.347Z,3.54
2018-03-22T18:37:20.999Z,3.62
2018-03-22T18:39:48.645Z,3.61
2018-03-22T18:42:16.311Z,3.56
2018-03-22T18:44:43.936Z,3.62
2018-03-22T18:47:11.527Z,3.64
2018-03-22T18:49:39.108Z,3.66
2018-03-22T18:52:06.750Z,3.62
2018-03-22T18:54:34.502Z,3.56
2018-03-22T18:57:02.078Z,3.56
2018-03-22T18:59:29.746Z,3.62
2018-03-22T19:01:57.319Z,3.63
2018-03-22T19:04:24.931Z,3.66
2018-03-22T19:06:52.579Z,3.65
2018-03-22T19:09:20.191Z,3.66
2018-03-22T19:11:47.779Z,3.78
2018-03-22T19:14:15.407Z,3.73
2018-03-22T19:16:43.082Z,3.70
2018-03-22T19:19:10.807Z,3.67
2018-03-22T19:21:38.504Z,3.69
2018-03-22T19:24:06.118Z,3.80
2018-03-22T19:26:33.795Z,3.78
2018-03-22T19:29:01.431Z,3.78
2018-03-22T19:31:29.739Z,3.64
2018-03-22T19:33:57.330Z,3.74
2018-03-22T19:36:24.907Z,3.68
2018-03-22T19:38:52.487Z,3.72
2018-03-22T19:41:20.352Z,3.80
2018-03-22T19:43:47.987Z,3.68
2018-03-22T19:46:15.614Z,3.66
2018-03-22T19:48:43.196Z,3.81
2018-03-22T19:51:10.811Z,3.83
2018-03-22T19:53:39.194Z,3.76
2018-03-22T19:56:07.466Z,3.77
2018-03-22T19:58:35.076Z,3.87
2018-03-22T20:01:02.659Z,3.97
2018-03-22T20:03:30.251Z,3.91
2018-03-22T20:05:57.826Z,3.79
2018-03-22T20:08:26.418Z,3.88
2018-03-22T20:10:54.868Z,3.95
2018-03-22T20:13:23.306Z,3.84
2018-03-22T20:15:50.892Z,3.74
2018-03-22T20:18:18.507Z,3.80
2018-03-22T20:20:46.092Z,3.86
2018-03-22T20:23:13.676Z,3.85
2018-03-22T20:25:42.045Z,3.91
2018-03-22T20:28:10.453Z,3.87
2018-03-22T20:30:38.859Z,3.99
2018-03-22T20:33:06.435Z,3.98
2018-03-22T20:35:34.954Z,4.00
2018-03-22T20:38:03.420Z,3.98
2018-03-22T20:40:31.855Z,3.96
2018-03-22T20:42:59.435Z,4.01
2018-03-22T20:45:27.029Z,4.06
2018-03-22T20:47:54.627Z,4.01
2018-03-22T20:50:22.423Z,3.94
2018-03-22T20:52:50.560Z,4.06
2018-03-22T20:55:18.739Z,4.03
2018-03-22T20:57:47.091Z,4.12
2018-03-22T21:00:15.466Z,4.10
2018-03-22T21:02:43.292Z,4.06
2018-03-22T21:05:11.731Z,4.01
2018-03-22T21:07:40.235Z,4.01
2018-03-22T21:10:08.808Z,4.00
2018-03-22T21:12:36.427Z,3.97
2018-03-22T21:15:04.147Z,4.02
2018-03-22T21:17:32.468Z,4.02
2018-03-22T21:20:00.787Z,4.07
2018-03-22T21:22:28.374Z,3.97
2018-03-22T21:24:55.988Z,3.91
2018-03-22T21:27:23.611Z,3.99
2018-03-22T21:29:51.224Z,3.91
2018-03-22T21:32:18.800Z,4.03
2018-03-22T21:34:46.422Z,4.05
2018-03-22T21:37:14.092Z,4.03
2018-03-22T21:39:41.714Z,4.00
2018-03-22T21:42:10.090Z,4.04
2018-03-22T21:44:38.450Z,4.10
2018-03-22T21:47:17.933Z,4.06
2018-03-22T21:49:45.550Z,3.95
2018-03-22T21:52:25.132Z,4.04
2018-03-22T21:54:52.819Z,4.08
2018-03-22T21:57:20.410Z,4.09
2018-03-22T21:59:48.811Z,4.10
2018-03-22T22:02:16.435Z,4.14
2018-03-22T22:04:44.095Z,4.20
2018-03-22T22:07:11.669Z,4.11
2018-03-22T22:09:40.007Z,4.17
2018-03-22T22:12:07.802Z,4.28
2018-03-22T22:14:35.397Z,4.15
2018-03-22T22:17:03.022Z,4.01
2018-03-22T22:19:30.606Z,3.97
2018-03-22T22:21:58.288Z,4.06
2018-03-22T22:24:25.876Z,3.95
2018-03-22T22:26:53.519Z,4.03
2018-03-22T22:29:21.098Z,4.05
2018-03-22T22:31:48.716Z,4.27
2018-03-22T22:34:16.308Z,4.25
2018-03-22T22:36:43.922Z,4.31
2018-03-22T22:39:11.501Z,4.13
2018-03-22T22:41:39.115Z,4.23
2018-03-22T22:44:07.648Z,4.19
2018-03-22T22:46:35.381Z,4.10
2018-03-22T22:49:02.964Z,4.09
2018-03-22T22:51:30.547Z,4.14
2018-03-22T22:53:58.133Z,4.20
2018-03-22T22:56:25.711Z,4.27
2018-03-22T22:58:53.291Z,4.38
2018-03-22T23:01:20.865Z,4.21
2018-03-22T23:03:48.443Z,4.20
2018-03-22T23:06:16.024Z,4.32
2018-03-22T23:08:43.603Z,4.21
2018-03-22T23:11:11.191Z,4.16
2018-03-22T23:13:38.813Z,4.21
2018-03-22T23:16:06.406Z,4.37
2018-03-22T23:18:34.804Z,4.37
2018-03-22T23:21:02.406Z,4.32
2018-03-22T23:23:29.987Z,4.21
2018-03-22T23:25:58.464Z,4.15
2018-03-22T23:28:26.043Z,4.22
2018-03-22T23:30:53.894Z,4.26
2018-03-22T23:33:21.593Z,4.24
2018-03-22T23:35:49.177Z,4.33
2018-03-22T23:38:16.760Z,4.32
2018-03-22T23:40:44.339Z,4.28
2018-03-22T23:43:11.918Z,4.35
2018-03-22T23:45:39.506Z,4.39
2018-03-22T23:48:07.079Z,4.38
2018-03-22T23:50:34.663Z,4.39
2018-03-22T23:53:02.242Z,4.35
2018-03-22T23:55:29.823Z,4.33
2018-03-22T23:57:57.407Z,4.43
